createdAt,value
2023-12-14T00:00:12.658Z,6.50
2023-12-14T00:02:40.265Z,6.50
2023-12-14T00:05:08.325Z,6.50
2023-12-14T00:07:35.997Z,6.50
2023-12-14T00:10:06.073Z,6.50
2023-12-14T00:12:33.883Z,6.50
2023-12-14T00:15:01.509Z,6.40
2023-12-14T00:17:29.224Z,6.50
2023-12-14T00:19:56.813Z,6.50
2023-12-14T00:22:24.437Z,6.50
2023-12-14T00:24:51.916Z,6.50
2023-12-14T00:27:19.463Z,6.50
2023-12-14T00:29:46.970Z,6.60
2023-12-14T00:32:14.637Z,6.60
2023-12-14T00:34:42.430Z,6.50
2023-12-14T00:37:10.009Z,6.50
2023-12-14T00:39:37.578Z,6.50
2023-12-14T00:42:05.612Z,6.40
2023-12-14T00:44:33.238Z,6.50
2023-12-14T00:47:01.540Z,6.50
2023-12-14T00:49:29.650Z,6.50
2023-12-14T00:51:57.412Z,6.50
2023-12-14T00:54:24.974Z,6.50
2023-12-14T00:56:52.550Z,6.50
2023-12-14T00:59:20.147Z,6.40
2023-12-14T01:01:48.113Z,6.40
2023-12-14T01:04:15.701Z,6.50
2023-12-14T01:06:43.198Z,6.50
2023-12-14T01:09:10.691Z,6.40
2023-12-14T01:11:38.390Z,6.40
2023-12-14T01:14:05.977Z,6.40
2023-12-14T01:16:33.675Z,6.40
2023-12-14T01:19:01.377Z,6.40
2023-12-14T01:21:29.129Z,6.40
2023-12-14T01:23:56.629Z,6.40
2023-12-14T01:26:24.157Z,6.40
2023-12-14T01:28:51.771Z,6.40
2023-12-14T01:31:19.985Z,6.30
2023-12-14T01:33:47.541Z,6.30
2023-12-14T01:36:24.990Z,6.30
2023-12-14T01:38:53.003Z,6.30
2023-12-14T01:41:20.551Z,6.30
2023-12-14T01:43:48.125Z,6.30
2023-12-14T01:46:17.538Z,6.30
2023-12-14T01:48:45.177Z,6.30
2023-12-14T01:51:12.705Z,6.30
2023-12-14T01:53:41.816Z,6.30
2023-12-14T01:56:09.697Z,6.30
2023-12-14T01:58:37.388Z,6.30
2023-12-14T02:01:23.694Z,6.40
2023-12-14T02:03:53.701Z,6.40
2023-12-14T02:06:21.695Z,6.40
2023-12-14T02:08:49.213Z,6.40
2023-12-14T02:11:16.914Z,6.40
2023-12-14T02:13:44.605Z,6.40
2023-12-14T02:16:12.240Z,6.30
2023-12-14T02:18:39.938Z,6.30
2023-12-14T02:21:07.542Z,6.30
2023-12-14T02:23:35.364Z,6.30
2023-12-14T02:26:02.980Z,6.40
2023-12-14T02:28:30.613Z,6.30
2023-12-14T02:30:58.239Z,6.30
2023-12-14T02:33:25.839Z,6.30
2023-12-14T02:35:53.515Z,6.30
2023-12-14T02:38:21.119Z,6.30
2023-12-14T02:40:51.703Z,6.30
2023-12-14T02:43:20.649Z,6.20
2023-12-14T02:45:48.917Z,6.30
2023-12-14T02:48:17.622Z,6.20
2023-12-14T02:50:45.841Z,6.20
2023-12-14T02:53:13.781Z,6.30
2023-12-14T02:55:41.668Z,6.20
2023-12-14T02:58:09.171Z,6.20
2023-12-14T03:00:37.496Z,6.20
2023-12-14T03:03:05.107Z,6.30
2023-12-14T03:05:32.705Z,6.20
2023-12-14T03:08:00.338Z,6.20
2023-12-14T03:10:27.912Z,6.20
2023-12-14T03:12:55.404Z,6.10
2023-12-14T03:15:23.400Z,6.10
2023-12-14T03:17:51.342Z,6.00
2023-12-14T03:20:19.020Z,5.90
2023-12-14T03:22:46.653Z,5.90
2023-12-14T03:25:14.480Z,5.80
2023-12-14T03:27:42.079Z,5.80
2023-12-14T03:30:11.413Z,5.70
2023-12-14T03:32:39.584Z,5.80
2023-12-14T03:35:09.559Z,5.70
2023-12-14T03:37:37.321Z,5.70
2023-12-14T03:40:05.602Z,5.60
2023-12-14T03:42:33.478Z,5.60
2023-12-14T03:45:01.218Z,5.50
2023-12-14T03:47:28.830Z,5.40
2023-12-14T03:49:56.413Z,5.30
2023-12-14T03:52:24.142Z,5.30
2023-12-14T03:54:51.713Z,5.30
2023-12-14T03:57:19.233Z,5.20
2023-12-14T03:59:46.699Z,5.20
2023-12-14T04:02:14.349Z,5.20
2023-12-14T04:04:42.009Z,5.10
2023-12-14T04:07:09.541Z,5.10
2023-12-14T04:09:37.048Z,5.10
2023-12-14T04:12:05.246Z,5.20
2023-12-14T04:14:32.799Z,5.20
2023-12-14T04:17:00.351Z,5.30
2023-12-14T04:19:27.959Z,5.20
2023-12-14T04:21:55.532Z,5.10
2023-12-14T04:24:23.277Z,5.10
2023-12-14T04:26:50.797Z,5.00
2023-12-14T04:29:18.343Z,5.00
2023-12-14T04:31:45.896Z,4.90
2023-12-14T04:34:16.832Z,4.90
2023-12-14T04:36:46.117Z,4.90
2023-12-14T04:39:13.797Z,5.00
2023-12-14T04:41:41.285Z,5.00
2023-12-14T04:44:11.212Z,5.00
2023-12-14T04:46:38.799Z,5.00
2023-12-14T04:49:06.561Z,5.00
2023-12-14T04:51:34.147Z,5.00
2023-12-14T04:54:01.725Z,5.10
2023-12-14T04:56:29.442Z,5.00
2023-12-14T04:58:57.075Z,5.00
2023-12-14T05:01:24.605Z,5.00
2023-12-14T05:03:52.295Z,4.90
2023-12-14T05:06:20.074Z,4.90
2023-12-14T05:08:47.837Z,4.90
2023-12-14T05:11:15.507Z,4.90
2023-12-14T05:13:43.139Z,5.00
2023-12-14T05:16:16.505Z,4.90
2023-12-14T05:18:44.185Z,4.90
2023-12-14T05:21:18.285Z,5.00
2023-12-14T05:23:45.971Z,5.00
2023-12-14T05:26:13.600Z,5.00
2023-12-14T05:28:41.344Z,5.00
2023-12-14T05:31:08.878Z,5.00
2023-12-14T05:33:39.679Z,5.00
2023-12-14T05:36:11.466Z,5.00
2023-12-14T05:38:42.366Z,5.00
2023-12-14T05:41:11.328Z,5.00
2023-12-14T05:43:39.024Z,4.90
2023-12-14T05:46:06.753Z,4.90
2023-12-14T05:48:34.426Z,4.90
2023-12-14T05:51:02.474Z,4.90
2023-12-14T05:53:30.247Z,4.90
2023-12-14T05:55:57.933Z,4.90
2023-12-14T05:58:25.508Z,4.80
2023-12-14T06:00:53.132Z,4.80
2023-12-14T06:03:21.723Z,4.70
2023-12-14T06:05:49.345Z,4.70
2023-12-14T06:08:16.894Z,4.80
2023-12-14T06:10:44.527Z,4.80
2023-12-14T06:13:12.058Z,4.80
2023-12-14T06:15:39.904Z,4.90
2023-12-14T06:18:07.637Z,4.90
2023-12-14T06:20:34.962Z,4.90
2023-12-14T06:23:02.420Z,4.90
2023-12-14T06:25:30.067Z,4.90
2023-12-14T06:27:57.855Z,4.90
2023-12-14T06:30:25.425Z,5.00
2023-12-14T06:32:53.075Z,4.90
2023-12-14T06:35:20.664Z,4.90
2023-12-14T06:37:48.212Z,4.90
2023-12-14T06:40:15.769Z,4.90
2023-12-14T06:42:43.468Z,4.90
2023-12-14T06:45:11.385Z,4.80
2023-12-14T06:47:39.276Z,4.80
2023-12-14T06:50:07.432Z,4.70
2023-12-14T06:52:35.231Z,4.80
2023-12-14T06:55:03.644Z,4.80
2023-12-14T06:57:31.188Z,4.70
2023-12-14T06:59:59.035Z,4.70
2023-12-14T07:02:26.614Z,4.70
2023-12-14T07:04:55.881Z,4.80
2023-12-14T07:07:23.378Z,4.80
2023-12-14T07:09:51.020Z,4.80
2023-12-14T07:12:19.039Z,4.80
2023-12-14T07:14:46.685Z,4.80
2023-12-14T07:17:14.305Z,4.80
2023-12-14T07:19:41.935Z,4.80
2023-12-14T07:22:09.550Z,4.80
2023-12-14T07:24:44.490Z,4.80
2023-12-14T07:27:16.946Z,4.80
2023-12-14T07:29:44.517Z,4.90
2023-12-14T07:32:12.113Z,4.90
2023-12-14T07:34:39.751Z,5.00
2023-12-14T07:37:07.345Z,4.90
2023-12-14T07:39:34.866Z,4.80
2023-12-14T07:42:02.478Z,4.90
2023-12-14T07:44:31.329Z,4.90
2023-12-14T07:47:02.108Z,4.90
2023-12-14T07:49:29.754Z,4.80
2023-12-14T07:51:57.506Z,4.80
2023-12-14T07:54:28.031Z,4.80
2023-12-14T07:56:55.771Z,4.80
2023-12-14T07:59:23.443Z,4.70
2023-12-14T08:01:51.092Z,4.70
2023-12-14T08:04:18.708Z,4.60
2023-12-14T08:06:46.272Z,4.60
2023-12-14T08:09:13.916Z,4.70
2023-12-14T08:11:41.730Z,4.70
2023-12-14T08:14:09.308Z,4.70
2023-12-14T08:16:37.212Z,4.80
2023-12-14T08:19:04.782Z,4.80
2023-12-14T08:21:32.444Z,4.70
2023-12-14T08:24:00.287Z,4.60
2023-12-14T08:26:27.895Z,4.60
2023-12-14T08:28:55.471Z,4.70
2023-12-14T08:31:23.823Z,4.70
2023-12-14T08:33:51.657Z,4.70
2023-12-14T08:36:19.334Z,4.60
2023-12-14T08:38:46.832Z,4.60
2023-12-14T08:41:17.584Z,4.60
2023-12-14T08:43:45.371Z,4.60
2023-12-14T08:46:13.070Z,4.60
2023-12-14T08:48:40.731Z,4.60
2023-12-14T08:51:08.253Z,4.70
2023-12-14T08:53:35.771Z,4.80
2023-12-14T08:56:04.354Z,4.80
2023-12-14T08:58:31.994Z,4.90
2023-12-14T09:00:59.594Z,4.90
2023-12-14T09:03:27.902Z,5.00
2023-12-14T09:05:55.751Z,5.00
2023-12-14T09:08:23.526Z,5.10
2023-12-14T09:10:51.065Z,5.10
2023-12-14T09:13:18.610Z,5.10
2023-12-14T09:15:46.265Z,5.10
2023-12-14T09:18:14.030Z,5.10
2023-12-14T09:20:43.719Z,5.10
2023-12-14T09:23:11.278Z,5.10
2023-12-14T09:25:38.852Z,5.10
2023-12-14T09:28:06.382Z,5.20
2023-12-14T09:30:34.253Z,5.30
2023-12-14T09:33:01.911Z,5.30
2023-12-14T09:35:29.637Z,5.40
2023-12-14T09:37:57.755Z,5.40
2023-12-14T09:40:25.268Z,5.40
2023-12-14T09:42:53.394Z,5.50
2023-12-14T09:45:24.869Z,5.50
2023-12-14T09:47:53.472Z,5.40
2023-12-14T09:50:22.715Z,5.50
2023-12-14T09:52:50.525Z,5.50
2023-12-14T09:55:18.372Z,5.50
2023-12-14T09:57:46.348Z,5.50
2023-12-14T10:00:33.107Z,5.60
2023-12-14T10:03:27.531Z,5.60
2023-12-14T10:06:00.115Z,5.60
2023-12-14T10:08:27.986Z,5.60
2023-12-14T10:10:56.982Z,5.60
2023-12-14T10:13:39.376Z,5.60
2023-12-14T10:16:08.159Z,5.70
2023-12-14T10:18:35.942Z,5.70
2023-12-14T10:21:03.840Z,5.80
2023-12-14T10:23:31.937Z,5.80
2023-12-14T10:25:59.483Z,5.80
2023-12-14T10:28:27.927Z,5.80
2023-12-14T10:30:55.991Z,5.90
2023-12-14T10:33:23.799Z,5.90
2023-12-14T10:35:51.444Z,5.90
2023-12-14T10:38:20.613Z,5.90
2023-12-14T10:40:48.720Z,6.00
2023-12-14T10:43:21.659Z,5.90
2023-12-14T10:45:55.332Z,5.90
2023-12-14T10:48:23.334Z,5.90
2023-12-14T10:50:52.595Z,5.90
2023-12-14T10:53:20.719Z,5.90
2023-12-14T10:55:51.183Z,5.90
2023-12-14T10:58:21.273Z,6.10
2023-12-14T11:01:04.462Z,6.00
2023-12-14T11:03:35.988Z,6.00
2023-12-14T11:06:12.928Z,6.00
2023-12-14T11:08:45.782Z,6.10
2023-12-14T11:11:16.462Z,6.10
2023-12-14T11:13:44.313Z,6.10
2023-12-14T11:16:11.986Z,6.20
2023-12-14T11:18:39.603Z,6.20
2023-12-14T11:21:07.567Z,6.20
2023-12-14T11:23:38.076Z,6.10
2023-12-14T11:26:11.346Z,6.10
2023-12-14T11:28:44.561Z,6.10
2023-12-14T11:31:13.529Z,6.20
2023-12-14T11:33:44.229Z,6.30
2023-12-14T11:36:13.473Z,6.20
2023-12-14T11:38:41.289Z,6.30
2023-12-14T11:41:08.881Z,6.30
2023-12-14T11:43:43.837Z,6.40
2023-12-14T11:46:12.233Z,6.30
2023-12-14T11:48:40.020Z,6.40
2023-12-14T11:51:07.767Z,6.40
2023-12-14T11:53:39.775Z,6.40
2023-12-14T11:56:08.303Z,6.40
2023-12-14T11:58:36.102Z,6.40
2023-12-14T12:01:16.097Z,6.40
2023-12-14T12:03:45.107Z,6.40
2023-12-14T12:06:28.842Z,6.30
2023-12-14T12:08:56.612Z,6.40
2023-12-14T12:11:26.558Z,6.40
2023-12-14T12:13:56.470Z,6.40
2023-12-14T12:16:24.518Z,6.40
2023-12-14T12:18:53.277Z,6.50
2023-12-14T12:21:21.000Z,6.60
2023-12-14T12:23:48.617Z,6.60
2023-12-14T12:26:16.498Z,6.70
2023-12-14T12:28:44.119Z,6.70
2023-12-14T12:31:12.009Z,6.80
2023-12-14T12:33:39.986Z,6.70
2023-12-14T12:36:07.991Z,6.80
2023-12-14T12:38:35.262Z,6.80
2023-12-14T12:41:03.195Z,6.80
2023-12-14T12:43:30.787Z,6.80
2023-12-14T12:45:59.743Z,6.90
2023-12-14T12:48:28.631Z,6.90
2023-12-14T12:50:56.378Z,6.90
2023-12-14T12:53:24.046Z,6.90
2023-12-14T12:55:51.809Z,6.90
2023-12-14T12:58:19.460Z,7.00
2023-12-14T13:00:46.954Z,7.00
2023-12-14T13:03:14.552Z,7.00
2023-12-14T13:05:43.406Z,7.00
2023-12-14T13:08:11.101Z,7.00
2023-12-14T13:10:40.171Z,7.00
2023-12-14T13:13:12.254Z,7.00
2023-12-14T13:15:40.376Z,7.00
2023-12-14T13:18:08.159Z,7.10
2023-12-14T13:20:37.110Z,7.10
2023-12-14T13:23:04.802Z,7.20
2023-12-14T13:25:32.368Z,7.20
2023-12-14T13:28:00.337Z,7.20
2023-12-14T13:30:27.974Z,7.30
2023-12-14T13:32:55.748Z,7.30
2023-12-14T13:35:25.752Z,7.30
2023-12-14T13:37:54.334Z,7.30
2023-12-14T13:40:21.953Z,7.30
2023-12-14T13:42:59.031Z,7.30
2023-12-14T13:45:32.029Z,7.30
2023-12-14T13:48:00.247Z,7.30
2023-12-14T13:50:29.365Z,7.40
2023-12-14T13:52:57.612Z,7.40
2023-12-14T13:55:25.336Z,7.50
2023-12-14T13:57:52.973Z,7.50
2023-12-14T14:00:20.981Z,7.50
2023-12-14T14:02:48.525Z,7.60
2023-12-14T14:05:16.372Z,7.50
2023-12-14T14:07:44.965Z,7.50
2023-12-14T14:10:12.647Z,7.60
2023-12-14T14:12:40.209Z,7.60
2023-12-14T14:15:08.324Z,7.60
2023-12-14T14:17:36.117Z,7.60
2023-12-14T14:20:04.493Z,7.60
2023-12-14T14:22:32.320Z,7.60
2023-12-14T14:24:59.958Z,7.60
2023-12-14T14:27:27.591Z,7.60
2023-12-14T14:29:57.342Z,7.60
2023-12-14T14:32:25.069Z,7.60
2023-12-14T14:34:54.203Z,7.70
2023-12-14T14:37:21.960Z,7.60
2023-12-14T14:39:49.480Z,7.70
2023-12-14T14:42:17.300Z,7.70
2023-12-14T14:44:44.897Z,7.70
2023-12-14T14:47:14.432Z,7.70
2023-12-14T14:49:42.009Z,7.80
2023-12-14T14:52:09.610Z,7.80
2023-12-14T14:54:37.357Z,7.80
2023-12-14T14:57:09.340Z,7.80
2023-12-14T14:59:37.530Z,7.90
2023-12-14T15:02:05.896Z,7.90
2023-12-14T15:04:33.752Z,7.90
2023-12-14T15:07:01.296Z,7.90
2023-12-14T15:09:29.353Z,8.00
2023-12-14T15:11:56.912Z,8.20
2023-12-14T15:14:26.230Z,8.10
2023-12-14T15:16:58.286Z,8.00
2023-12-14T15:19:25.871Z,8.10
2023-12-14T15:21:53.381Z,8.10
2023-12-14T15:24:20.937Z,8.10
2023-12-14T15:26:49.854Z,8.10
2023-12-14T15:29:17.396Z,8.10
2023-12-14T15:31:44.987Z,8.00
2023-12-14T15:34:12.656Z,8.10
2023-12-14T15:36:40.294Z,8.10
2023-12-14T15:39:08.024Z,8.10
2023-12-14T15:41:36.680Z,8.10
2023-12-14T15:44:04.268Z,8.10
2023-12-14T15:46:31.812Z,8.10
2023-12-14T15:48:59.459Z,8.10
2023-12-14T15:51:27.958Z,8.10
2023-12-14T15:53:57.508Z,8.10
2023-12-14T15:56:26.201Z,8.20
2023-12-14T15:58:53.847Z,8.20
2023-12-14T16:01:22.279Z,8.20
2023-12-14T16:03:49.878Z,8.20
2023-12-14T16:06:19.176Z,8.20
2023-12-14T16:08:46.799Z,8.30
2023-12-14T16:11:14.580Z,8.30
2023-12-14T16:13:42.296Z,8.30
2023-12-14T16:16:09.924Z,8.30
2023-12-14T16:18:37.530Z,8.30
2023-12-14T16:21:05.230Z,8.30
2023-12-14T16:23:33.061Z,8.30
2023-12-14T16:26:00.748Z,8.30
2023-12-14T16:28:28.353Z,8.30
2023-12-14T16:30:55.955Z,8.30
2023-12-14T16:33:23.637Z,8.30
2023-12-14T16:35:51.373Z,8.30
2023-12-14T16:38:18.977Z,8.30
2023-12-14T16:40:47.434Z,8.30
2023-12-14T16:43:20.096Z,8.30
2023-12-14T16:45:47.667Z,8.20
2023-12-14T16:48:15.229Z,8.30
2023-12-14T16:50:42.891Z,8.30
2023-12-14T16:53:11.752Z,8.20
2023-12-14T16:55:39.504Z,8.20
2023-12-14T16:58:07.055Z,8.20
2023-12-14T17:00:34.649Z,8.30
2023-12-14T17:03:02.168Z,8.30
2023-12-14T17:05:29.771Z,8.30
2023-12-14T17:07:57.934Z,8.20
2023-12-14T17:10:25.594Z,8.20
2023-12-14T17:12:53.151Z,8.20
2023-12-14T17:15:20.770Z,8.10
2023-12-14T17:17:48.431Z,8.20
2023-12-14T17:20:16.116Z,8.20
2023-12-14T17:22:43.727Z,8.20
2023-12-14T17:25:12.131Z,8.20
2023-12-14T17:27:40.178Z,8.10
2023-12-14T17:30:10.420Z,8.10
2023-12-14T17:32:38.338Z,8.10
2023-12-14T17:35:06.332Z,8.00
2023-12-14T17:37:34.176Z,8.00
2023-12-14T17:40:02.031Z,8.10
2023-12-14T17:42:29.652Z,8.00
2023-12-14T17:44:57.172Z,8.00
2023-12-14T17:47:24.849Z,8.00
2023-12-14T17:49:52.635Z,7.90
2023-12-14T17:52:20.254Z,7.90
2023-12-14T17:54:47.576Z,7.90
2023-12-14T17:57:15.111Z,7.90
2023-12-14T17:59:42.654Z,8.00
2023-12-14T18:02:10.230Z,8.00
2023-12-14T18:04:43.356Z,8.00
2023-12-14T18:07:11.046Z,8.00
2023-12-14T18:09:38.630Z,8.10
2023-12-14T18:12:06.373Z,8.00
2023-12-14T18:14:33.895Z,8.00
2023-12-14T18:17:01.479Z,8.00
2023-12-14T18:19:30.671Z,8.00
2023-12-14T18:21:58.274Z,8.00
2023-12-14T18:24:25.828Z,8.00
2023-12-14T18:26:53.308Z,8.00
2023-12-14T18:29:21.012Z,8.00
2023-12-14T18:31:48.657Z,8.00
2023-12-14T18:34:16.288Z,8.00
2023-12-14T18:36:43.831Z,8.00
2023-12-14T18:39:11.345Z,8.00
2023-12-14T18:41:38.910Z,8.00
2023-12-14T18:44:10.555Z,8.00
2023-12-14T18:46:40.538Z,7.90
2023-12-14T18:49:08.230Z,7.90
2023-12-14T18:51:38.905Z,7.90
2023-12-14T18:54:06.549Z,7.90
2023-12-14T18:56:34.183Z,7.90
2023-12-14T18:59:01.816Z,7.90
2023-12-14T19:01:29.483Z,7.80
2023-12-14T19:03:58.887Z,7.80
2023-12-14T19:06:26.625Z,7.80
2023-12-14T19:08:54.214Z,7.70
2023-12-14T19:11:21.914Z,7.80
2023-12-14T19:13:49.774Z,7.80
2023-12-14T19:16:28.226Z,7.70
2023-12-14T19:18:55.884Z,7.70
2023-12-14T19:21:24.157Z,7.70
2023-12-14T19:23:52.747Z,7.70
2023-12-14T19:26:25.613Z,7.60
2023-12-14T19:28:54.751Z,7.60
2023-12-14T19:31:25.903Z,7.60
2023-12-14T19:33:53.922Z,7.50
2023-12-14T19:36:21.571Z,7.50
2023-12-14T19:38:52.302Z,7.40
2023-12-14T19:41:20.045Z,7.50
2023-12-14T19:43:48.656Z,7.50
2023-12-14T19:46:16.796Z,7.50
2023-12-14T19:48:44.777Z,7.50
2023-12-14T19:51:12.678Z,7.40
2023-12-14T19:53:40.242Z,7.40
2023-12-14T19:56:11.399Z,7.50
2023-12-14T19:58:39.060Z,7.50
2023-12-14T20:01:06.751Z,7.60
2023-12-14T20:03:37.544Z,7.60
2023-12-14T20:06:05.578Z,7.60
2023-12-14T20:08:33.209Z,7.60
2023-12-14T20:11:00.893Z,7.60
2023-12-14T20:13:28.600Z,7.60
2023-12-14T20:15:56.205Z,7.70
2023-12-14T20:18:23.891Z,7.70
2023-12-14T20:20:52.199Z,7.70
2023-12-14T20:23:19.850Z,7.70
2023-12-14T20:25:47.449Z,7.70
2023-12-14T20:28:15.016Z,7.70
2023-12-14T20:30:46.897Z,7.80
2023-12-14T20:33:16.318Z,7.80
2023-12-14T20:35:44.610Z,7.80
2023-12-14T20:38:12.782Z,7.80
2023-12-14T20:40:40.427Z,7.90
2023-12-14T20:43:08.612Z,7.90
2023-12-14T20:45:36.258Z,7.90
2023-12-14T20:48:04.146Z,7.90
2023-12-14T20:50:34.865Z,7.90
2023-12-14T20:53:02.858Z,7.90
2023-12-14T20:55:30.459Z,7.90
2023-12-14T20:57:58.004Z,7.90
2023-12-14T21:00:25.653Z,7.90
2023-12-14T21:02:53.270Z,7.90
2023-12-14T21:05:22.046Z,7.90
2023-12-14T21:07:53.320Z,8.00
2023-12-14T21:10:20.916Z,8.00
2023-12-14T21:12:48.481Z,8.00
2023-12-14T21:15:16.153Z,8.00
2023-12-14T21:17:44.013Z,8.00
2023-12-14T21:20:12.169Z,7.90
2023-12-14T21:22:39.692Z,8.00
2023-12-14T21:25:07.364Z,8.00
2023-12-14T21:27:50.575Z,8.00
2023-12-14T21:30:20.368Z,8.00
2023-12-14T21:32:49.396Z,8.00
2023-12-14T21:35:17.358Z,8.00
2023-12-14T21:37:46.131Z,8.10
2023-12-14T21:40:15.948Z,8.20
2023-12-14T21:42:43.788Z,8.20
2023-12-14T21:45:11.989Z,8.20
2023-12-14T21:47:39.972Z,8.10
2023-12-14T21:50:08.308Z,8.10
2023-12-14T21:52:35.983Z,8.10
2023-12-14T21:55:03.759Z,8.10
2023-12-14T21:57:31.403Z,8.10
2023-12-14T21:59:58.876Z,8.10
2023-12-14T22:02:26.543Z,8.10
2023-12-14T22:04:54.155Z,8.20
2023-12-14T22:07:22.909Z,8.10
2023-12-14T22:09:50.442Z,8.10
2023-12-14T22:12:17.944Z,8.10
2023-12-14T22:14:45.446Z,8.10
2023-12-14T22:17:12.985Z,8.10
2023-12-14T22:19:41.053Z,8.10
2023-12-14T22:22:08.827Z,8.10
2023-12-14T22:24:36.395Z,8.10
2023-12-14T22:27:04.116Z,8.10
2023-12-14T22:29:31.845Z,8.10
2023-12-14T22:32:00.418Z,8.10
2023-12-14T22:34:28.390Z,8.10
2023-12-14T22:36:55.930Z,8.10
2023-12-14T22:39:23.482Z,8.10
2023-12-14T22:41:50.993Z,8.20
2023-12-14T22:44:18.580Z,8.10
2023-12-14T22:46:46.326Z,8.10
2023-12-14T22:49:13.890Z,8.10
2023-12-14T22:51:41.583Z,8.10
2023-12-14T22:54:09.127Z,8.10
2023-12-14T22:56:36.693Z,8.10
2023-12-14T22:59:04.877Z,8.10
2023-12-14T23:01:33.872Z,8.10
2023-12-14T23:04:02.928Z,8.10
2023-12-14T23:06:32.677Z,8.10
2023-12-14T23:09:01.373Z,8.00
2023-12-14T23:11:29.478Z,8.10
2023-12-14T23:13:58.345Z,8.10
2023-12-14T23:16:26.296Z,8.10
2023-12-14T23:18:53.939Z,8.10
2023-12-14T23:21:21.698Z,8.00
2023-12-14T23:23:50.750Z,8.10
2023-12-14T23:26:18.385Z,8.00
2023-12-14T23:28:45.939Z,8.00
2023-12-14T23:31:13.456Z,8.10
2023-12-14T23:33:41.155Z,8.10
2023-12-14T23:36:09.343Z,8.10
2023-12-14T23:38:36.917Z,8.10
2023-12-14T23:41:04.890Z,8.10
2023-12-14T23:43:33.137Z,8.00
2023-12-14T23:46:01.042Z,8.10
2023-12-14T23:48:28.795Z,8.10
2023-12-14T23:50:56.481Z,8.00
2023-12-14T23:53:24.008Z,8.00
2023-12-14T23:55:51.772Z,8.00
2023-12-14T23:58:19.323Z,8.00
